sensor_id;sensor_type;location;lat;lon;timestamp;temperature;humidity
19805;DHT22;10062;51.052;13.756;2022-09-30T00:01:29;9.20;11.10
19805;DHT22;10062;51.052;13.756;2022-09-30T00:04:02;9.20;18.30
19805;DHT22;10062;51.052;13.756;2022-09-30T00:06:34;9.20;15.80
19805;DHT22;10062;51.052;13.756;2022-09-30T00:09:07;9.20;24.70
19805;DHT22;10062;51.052;13.756;2022-09-30T00:11:41;9.20;12.80
19805;DHT22;10062;51.052;13.756;2022-09-30T00:14:16;9.30;9.20
19805;DHT22;10062;51.052;13.756;2022-09-30T00:16:49;9.20;1.20
19805;DHT22;10062;51.052;13.756;2022-09-30T00:19:21;9.20;5.90
19805;DHT22;10062;51.052;13.756;2022-09-30T00:21:53;9.30;6.00
19805;DHT22;10062;51.052;13.756;2022-09-30T00:24:25;9.00;11.90
19805;DHT22;10062;51.052;13.756;2022-09-30T00:26:57;8.90;16.30
19805;DHT22;10062;51.052;13.756;2022-09-30T00:29:29;9.00;21.30
19805;DHT22;10062;51.052;13.756;2022-09-30T00:32:02;9.00;12.00
19805;DHT22;10062;51.052;13.756;2022-09-30T00:34:34;9.00;11.40
19805;DHT22;10062;51.052;13.756;2022-09-30T00:37:06;9.10;2.00
19805;DHT22;10062;51.052;13.756;2022-09-30T00:39:38;8.90;1.00
19805;DHT22;10062;51.052;13.756;2022-09-30T00:42:12;8.80;17.60
19805;DHT22;10062;51.052;13.756;2022-09-30T00:44:51;8.80;31.80
19805;DHT22;10062;51.052;13.756;2022-09-30T00:47:43;8.90;38.20
19805;DHT22;10062;51.052;13.756;2022-09-30T00:50:31;8.70;40.90
19805;DHT22;10062;51.052;13.756;2022-09-30T00:53:07;8.70;46.90
19805;DHT22;10062;51.052;13.756;2022-09-30T00:55:46;8.70;44.80
19805;DHT22;10062;51.052;13.756;2022-09-30T00:58:24;8.70;67.90
19805;DHT22;10062;51.052;13.756;2022-09-30T01:00:59;8.90;56.70
19805;DHT22;10062;51.052;13.756;2022-09-30T01:03:39;9.00;34.60
19805;DHT22;10062;51.052;13.756;2022-09-30T01:06:12;8.90;36.90
19805;DHT22;10062;51.052;13.756;2022-09-30T01:08:44;8.80;27.70
19805;DHT22;10062;51.052;13.756;2022-09-30T01:11:17;8.90;40.60
19805;DHT22;10062;51.052;13.756;2022-09-30T01:13:51;9.00;28.40
19805;DHT22;10062;51.052;13.756;2022-09-30T01:16:42;9.00;25.60
19805;DHT22;10062;51.052;13.756;2022-09-30T01:19:28;9.00;24.70
19805;DHT22;10062;51.052;13.756;2022-09-30T01:22:23;8.80;33.00
19805;DHT22;10062;51.052;13.756;2022-09-30T01:25:12;8.80;34.60
19805;DHT22;10062;51.052;13.756;2022-09-30T01:31:48;8.70;66.90
19805;DHT22;10062;51.052;13.756;2022-09-30T01:34:30;8.60;68.40
19805;DHT22;10062;51.052;13.756;2022-09-30T01:37:10;8.70;65.50
19805;DHT22;10062;51.052;13.756;2022-09-30T01:39:51;8.70;70.30
19805;DHT22;10062;51.052;13.756;2022-09-30T01:42:34;8.70;68.60
19805;DHT22;10062;51.052;13.756;2022-09-30T01:45:09;8.70;78.80
19805;DHT22;10062;51.052;13.756;2022-09-30T01:47:47;8.70;76.80
19805;DHT22;10062;51.052;13.756;2022-09-30T01:50:24;9.00;57.60
19805;DHT22;10062;51.052;13.756;2022-09-30T01:53:06;9.00;34.00
19805;DHT22;10062;51.052;13.756;2022-09-30T01:55:43;9.00;18.10
19805;DHT22;10062;51.052;13.756;2022-09-30T01:58:23;8.90;20.90
19805;DHT22;10062;51.052;13.756;2022-09-30T02:00:59;8.80;31.50
19805;DHT22;10062;51.052;13.756;2022-09-30T02:03:37;8.90;30.30
19805;DHT22;10062;51.052;13.756;2022-09-30T02:06:14;8.90;31.50
19805;DHT22;10062;51.052;13.756;2022-09-30T02:08:52;8.80;41.20
19805;DHT22;10062;51.052;13.756;2022-09-30T02:11:27;8.70;42.00
19805;DHT22;10062;51.052;13.756;2022-09-30T02:14:03;8.80;39.60
19805;DHT22;10062;51.052;13.756;2022-09-30T02:16:37;8.90;35.20
19805;DHT22;10062;51.052;13.756;2022-09-30T02:19:16;9.00;22.20
19805;DHT22;10062;51.052;13.756;2022-09-30T02:21:54;9.10;11.60
19805;DHT22;10062;51.052;13.756;2022-09-30T02:24:30;8.80;15.50
19805;DHT22;10062;51.052;13.756;2022-09-30T02:27:12;8.70;37.60
19805;DHT22;10062;51.052;13.756;2022-09-30T02:29:50;8.70;58.90
19805;DHT22;10062;51.052;13.756;2022-09-30T02:32:26;8.70;52.90
19805;DHT22;10062;51.052;13.756;2022-09-30T02:35:04;8.80;45.10
19805;DHT22;10062;51.052;13.756;2022-09-30T02:37:39;8.90;44.60
19805;DHT22;10062;51.052;13.756;2022-09-30T02:40:17;8.70;49.00
19805;DHT22;10062;51.052;13.756;2022-09-30T02:42:51;8.50;72.00
19805;DHT22;10062;51.052;13.756;2022-09-30T02:45:23;8.60;85.70
19805;DHT22;10062;51.052;13.756;2022-09-30T02:48:04;8.70;81.20
19805;DHT22;10062;51.052;13.756;2022-09-30T02:50:46;8.70;61.70
19805;DHT22;10062;51.052;13.756;2022-09-30T02:53:24;8.80;53.00
19805;DHT22;10062;51.052;13.756;2022-09-30T02:56:10;8.70;54.50
19805;DHT22;10062;51.052;13.756;2022-09-30T02:58:44;8.80;55.30
19805;DHT22;10062;51.052;13.756;2022-09-30T03:01:16;8.90;49.00
19805;DHT22;10062;51.052;13.756;2022-09-30T03:03:49;8.80;51.00
19805;DHT22;10062;51.052;13.756;2022-09-30T03:06:23;8.90;42.00
19805;DHT22;10062;51.052;13.756;2022-09-30T03:08:55;8.80;40.10
19805;DHT22;10062;51.052;13.756;2022-09-30T03:11:28;8.80;40.70
19805;DHT22;10062;51.052;13.756;2022-09-30T03:17:11;8.90;37.80
19805;DHT22;10062;51.052;13.756;2022-09-30T03:20:07;8.90;30.30
19805;DHT22;10062;51.052;13.756;2022-09-30T03:22:59;8.90;27.90
19805;DHT22;10062;51.052;13.756;2022-09-30T03:25:42;8.90;36.20
19805;DHT22;10062;51.052;13.756;2022-09-30T03:28:22;8.90;30.60
19805;DHT22;10062;51.052;13.756;2022-09-30T03:31:02;8.90;26.30
19805;DHT22;10062;51.052;13.756;2022-09-30T03:33:40;8.90;22.70
19805;DHT22;10062;51.052;13.756;2022-09-30T03:36:23;8.90;22.20
19805;DHT22;10062;51.052;13.756;2022-09-30T03:39:02;8.80;25.90
19805;DHT22;10062;51.052;13.756;2022-09-30T03:41:38;8.80;33.00
19805;DHT22;10062;51.052;13.756;2022-09-30T03:44:16;8.90;25.40
19805;DHT22;10062;51.052;13.756;2022-09-30T03:46:53;8.90;19.20
19805;DHT22;10062;51.052;13.756;2022-09-30T03:49:29;8.90;15.50
19805;DHT22;10062;51.052;13.756;2022-09-30T03:52:05;8.90;19.30
19805;DHT22;10062;51.052;13.756;2022-09-30T03:54:46;8.90;24.70
19805;DHT22;10062;51.052;13.756;2022-09-30T03:57:18;8.90;28.50
19805;DHT22;10062;51.052;13.756;2022-09-30T03:59:50;8.80;27.70
19805;DHT22;10062;51.052;13.756;2022-09-30T04:02:22;9.00;28.40
19805;DHT22;10062;51.052;13.756;2022-09-30T04:04:54;8.90;27.70
19805;DHT22;10062;51.052;13.756;2022-09-30T04:07:26;8.90;35.90
19805;DHT22;10062;51.052;13.756;2022-09-30T04:09:59;8.80;62.20
19805;DHT22;10062;51.052;13.756;2022-09-30T04:12:31;6.10;53.30
19805;DHT22;10062;51.052;13.756;2022-09-30T04:15:04;8.90;48.80
19805;DHT22;10062;51.052;13.756;2022-09-30T04:17:36;8.90;37.40
19805;DHT22;10062;51.052;13.756;2022-09-30T04:20:08;8.90;27.70
19805;DHT22;10062;51.052;13.756;2022-09-30T04:22:40;8.90;23.00
19805;DHT22;10062;51.052;13.756;2022-09-30T04:25:13;8.90;22.60
19805;DHT22;10062;51.052;13.756;2022-09-30T04:27:45;8.90;21.50
19805;DHT22;10062;51.052;13.756;2022-09-30T04:30:17;8.90;24.20
19805;DHT22;10062;51.052;13.756;2022-09-30T04:32:49;8.90;24.30
19805;DHT22;10062;51.052;13.756;2022-09-30T04:35:21;8.80;20.60
19805;DHT22;10062;51.052;13.756;2022-09-30T04:37:53;8.60;45.30
19805;DHT22;10062;51.052;13.756;2022-09-30T04:40:26;8.50;76.70
19805;DHT22;10062;51.052;13.756;2022-09-30T04:42:58;8.40;80.50
19805;DHT22;10062;51.052;13.756;2022-09-30T04:45:30;8.40;83.70
19805;DHT22;10062;51.052;13.756;2022-09-30T04:48:01;8.40;84.10
19805;DHT22;10062;51.052;13.756;2022-09-30T04:50:33;8.30;93.50
19805;DHT22;10062;51.052;13.756;2022-09-30T04:53:05;8.30;94.20
19805;DHT22;10062;51.052;13.756;2022-09-30T04:55:38;8.20;99.90
19805;DHT22;10062;51.052;13.756;2022-09-30T04:58:11;8.20;99.90
19805;DHT22;10062;51.052;13.756;2022-09-30T05:00:43;8.20;99.90
19805;DHT22;10062;51.052;13.756;2022-09-30T05:03:15;8.20;97.10
19805;DHT22;10062;51.052;13.756;2022-09-30T05:05:47;8.20;94.90
19805;DHT22;10062;51.052;13.756;2022-09-30T05:08:21;8.20;94.70
19805;DHT22;10062;51.052;13.756;2022-09-30T05:10:55;8.20;91.70
19805;DHT22;10062;51.052;13.756;2022-09-30T05:13:30;8.10;91.70
19805;DHT22;10062;51.052;13.756;2022-09-30T05:16:02;8.00;98.60
19805;DHT22;10062;51.052;13.756;2022-09-30T05:18:34;8.00;99.90
19805;DHT22;10062;51.052;13.756;2022-09-30T05:21:07;8.00;99.90
19805;DHT22;10062;51.052;13.756;2022-09-30T05:23:39;8.00;99.90
19805;DHT22;10062;51.052;13.756;2022-09-30T05:26:12;8.00;95.70
19805;DHT22;10062;51.052;13.756;2022-09-30T05:28:44;7.90;99.90
19805;DHT22;10062;51.052;13.756;2022-09-30T05:31:16;7.90;99.90
19805;DHT22;10062;51.052;13.756;2022-09-30T05:33:50;7.80;99.90
19805;DHT22;10062;51.052;13.756;2022-09-30T05:36:23;7.90;99.90
19805;DHT22;10062;51.052;13.756;2022-09-30T05:38:55;8.00;99.90
19805;DHT22;10062;51.052;13.756;2022-09-30T05:41:28;8.00;99.90
19805;DHT22;10062;51.052;13.756;2022-09-30T05:44:00;8.10;98.60
19805;DHT22;10062;51.052;13.756;2022-09-30T05:46:32;8.10;88.60
19805;DHT22;10062;51.052;13.756;2022-09-30T05:49:04;8.20;80.10
19805;DHT22;10062;51.052;13.756;2022-09-30T05:51:37;8.30;69.80
19805;DHT22;10062;51.052;13.756;2022-09-30T05:54:09;8.30;63.30
19805;DHT22;10062;51.052;13.756;2022-09-30T05:56:42;8.40;52.20
19805;DHT22;10062;51.052;13.756;2022-09-30T05:59:14;8.50;46.70
19805;DHT22;10062;51.052;13.756;2022-09-30T06:01:46;8.50;36.60
19805;DHT22;10062;51.052;13.756;2022-09-30T06:04:18;8.50;56.20
19805;DHT22;10062;51.052;13.756;2022-09-30T06:06:51;8.60;67.80
19805;DHT22;10062;51.052;13.756;2022-09-30T06:09:22;8.70;74.00
19805;DHT22;10062;51.052;13.756;2022-09-30T06:11:56;8.80;70.00
19805;DHT22;10062;51.052;13.756;2022-09-30T06:14:28;8.90;61.60
19805;DHT22;10062;51.052;13.756;2022-09-30T06:17:00;9.00;52.90
19805;DHT22;10062;51.052;13.756;2022-09-30T06:19:32;9.00;51.30
19805;DHT22;10062;51.052;13.756;2022-09-30T06:22:04;9.00;55.40
19805;DHT22;10062;51.052;13.756;2022-09-30T06:24:36;9.00;58.00
19805;DHT22;10062;51.052;13.756;2022-09-30T06:27:09;9.00;51.30
19805;DHT22;10062;51.052;13.756;2022-09-30T06:29:41;9.00;30.20
19805;DHT22;10062;51.052;13.756;2022-09-30T06:32:13;8.80;47.60
19805;DHT22;10062;51.052;13.756;2022-09-30T06:34:45;8.80;71.40
19805;DHT22;10062;51.052;13.756;2022-09-30T06:37:17;8.90;67.50
19805;DHT22;10062;51.052;13.756;2022-09-30T06:39:49;10.70;78.20
19805;DHT22;10062;51.052;13.756;2022-09-30T06:42:22;9.10;76.50
19805;DHT22;10062;51.052;13.756;2022-09-30T06:44:54;9.20;55.80
19805;DHT22;10062;51.052;13.756;2022-09-30T06:47:26;9.40;40.90
19805;DHT22;10062;51.052;13.756;2022-09-30T06:49:58;9.50;1.00
19805;DHT22;10062;51.052;13.756;2022-09-30T06:52:30;9.50;1.00
19805;DHT22;10062;51.052;13.756;2022-09-30T06:55:02;9.70;1.00
19805;DHT22;10062;51.052;13.756;2022-09-30T06:57:35;9.70;1.00
19805;DHT22;10062;51.052;13.756;2022-09-30T07:00:08;11.10;1.00
19805;DHT22;10062;51.052;13.756;2022-09-30T07:02:40;9.90;1.00
19805;DHT22;10062;51.052;13.756;2022-09-30T07:05:12;10.30;1.00
19805;DHT22;10062;51.052;13.756;2022-09-30T07:07:44;10.30;1.00
19805;DHT22;10062;51.052;13.756;2022-09-30T07:10:17;10.40;1.00
19805;DHT22;10062;51.052;13.756;2022-09-30T07:12:51;10.60;1.00
19805;DHT22;10062;51.052;13.756;2022-09-30T07:15:23;10.90;1.00
19805;DHT22;10062;51.052;13.756;2022-09-30T07:17:56;11.50;1.00
19805;DHT22;10062;51.052;13.756;2022-09-30T07:20:27;12.40;1.00
19805;DHT22;10062;51.052;13.756;2022-09-30T07:22:59;12.60;1.00
19805;DHT22;10062;51.052;13.756;2022-09-30T07:25:31;12.70;99.90
19805;DHT22;10062;51.052;13.756;2022-09-30T07:28:04;12.80;99.90
19805;DHT22;10062;51.052;13.756;2022-09-30T07:30:36;12.90;99.90
19805;DHT22;10062;51.052;13.756;2022-09-30T07:33:13;12.90;99.90
19805;DHT22;10062;51.052;13.756;2022-09-30T07:35:50;13.10;1.00
19805;DHT22;10062;51.052;13.756;2022-09-30T07:38:23;13.10;1.00
19805;DHT22;10062;51.052;13.756;2022-09-30T07:40:58;13.10;1.00
19805;DHT22;10062;51.052;13.756;2022-09-30T07:43:32;12.90;1.00
19805;DHT22;10062;51.052;13.756;2022-09-30T07:46:09;13.00;1.00
19805;DHT22;10062;51.052;13.756;2022-09-30T07:48:43;13.50;1.00
19805;DHT22;10062;51.052;13.756;2022-09-30T07:51:19;13.10;1.00
19805;DHT22;10062;51.052;13.756;2022-09-30T07:53:53;13.70;1.00
19805;DHT22;10062;51.052;13.756;2022-09-30T07:56:26;13.10;1.00
19805;DHT22;10062;51.052;13.756;2022-09-30T07:59:00;13.40;1.00
19805;DHT22;10062;51.052;13.756;2022-09-30T08:01:32;13.40;1.00
19805;DHT22;10062;51.052;13.756;2022-09-30T08:04:07;13.20;45.30
19805;DHT22;10062;51.052;13.756;2022-09-30T08:06:40;13.20;99.90
19805;DHT22;10062;51.052;13.756;2022-09-30T08:09:13;13.20;99.90
19805;DHT22;10062;51.052;13.756;2022-09-30T08:11:45;13.30;1.00
19805;DHT22;10062;51.052;13.756;2022-09-30T08:14:21;13.20;99.90
19805;DHT22;10062;51.052;13.756;2022-09-30T08:16:53;13.50;1.00
19805;DHT22;10062;51.052;13.756;2022-09-30T08:19:27;14.20;99.90
19805;DHT22;10062;51.052;13.756;2022-09-30T08:21:59;13.80;99.90
19805;DHT22;10062;51.052;13.756;2022-09-30T08:24:31;13.80;1.00
19805;DHT22;10062;51.052;13.756;2022-09-30T08:27:03;14.30;1.00
19805;DHT22;10062;51.052;13.756;2022-09-30T08:29:36;14.60;1.00
19805;DHT22;10062;51.052;13.756;2022-09-30T08:32:08;14.40;99.90
19805;DHT22;10062;51.052;13.756;2022-09-30T08:37:11;16.90;1.00
19805;DHT22;10062;51.052;13.756;2022-09-30T08:39:43;16.90;1.00
19805;DHT22;10062;51.052;13.756;2022-09-30T08:42:27;17.30;1.00
19805;DHT22;10062;51.052;13.756;2022-09-30T08:45:11;17.70;25.30
19805;DHT22;10062;51.052;13.756;2022-09-30T08:47:51;17.80;1.00
19805;DHT22;10062;51.052;13.756;2022-09-30T08:50:29;18.20;1.00
19805;DHT22;10062;51.052;13.756;2022-09-30T08:53:04;19.20;1.00
19805;DHT22;10062;51.052;13.756;2022-09-30T08:55:41;19.80;1.00
19805;DHT22;10062;51.052;13.756;2022-09-30T08:58:19;20.50;99.90
19805;DHT22;10062;51.052;13.756;2022-09-30T09:00:58;20.90;99.90
19805;DHT22;10062;51.052;13.756;2022-09-30T09:03:32;21.10;99.90
19805;DHT22;10062;51.052;13.756;2022-09-30T09:06:17;21.10;99.90
19805;DHT22;10062;51.052;13.756;2022-09-30T09:09:03;22.80;56.00
19805;DHT22;10062;51.052;13.756;2022-09-30T09:11:46;24.10;1.00
19805;DHT22;10062;51.052;13.756;2022-09-30T09:14:28;24.80;1.00
19805;DHT22;10062;51.052;13.756;2022-09-30T09:17:13;23.60;1.00
19805;DHT22;10062;51.052;13.756;2022-09-30T09:19:57;24.90;1.00
19805;DHT22;10062;51.052;13.756;2022-09-30T09:22:33;25.20;1.00
19805;DHT22;10062;51.052;13.756;2022-09-30T09:25:11;26.50;1.00
19805;DHT22;10062;51.052;13.756;2022-09-30T09:27:48;27.30;1.00
19805;DHT22;10062;51.052;13.756;2022-09-30T09:30:22;27.10;1.00
19805;DHT22;10062;51.052;13.756;2022-09-30T09:32:58;28.00;1.00
19805;DHT22;10062;51.052;13.756;2022-09-30T09:35:38;29.50;1.00
19805;DHT22;10062;51.052;13.756;2022-09-30T09:38:18;31.30;1.00
19805;DHT22;10062;51.052;13.756;2022-09-30T09:43:57;31.10;1.00
19805;DHT22;10062;51.052;13.756;2022-09-30T09:46:36;31.80;1.00
19805;DHT22;10062;51.052;13.756;2022-09-30T09:49:29;32.40;1.00
19805;DHT22;10062;51.052;13.756;2022-09-30T09:55:04;34.40;1.00
19805;DHT22;10062;51.052;13.756;2022-09-30T09:57:36;35.20;1.00
19805;DHT22;10062;51.052;13.756;2022-09-30T10:00:10;36.80;1.00
19805;DHT22;10062;51.052;13.756;2022-09-30T10:03:02;36.20;1.00
19805;DHT22;10062;51.052;13.756;2022-09-30T10:05:37;37.80;1.00
19805;DHT22;10062;51.052;13.756;2022-09-30T10:08:13;37.30;1.00
19805;DHT22;10062;51.052;13.756;2022-09-30T10:10:48;39.10;1.00
19805;DHT22;10062;51.052;13.756;2022-09-30T10:13:22;38.40;1.00
19805;DHT22;10062;51.052;13.756;2022-09-30T10:15:55;38.70;1.00
19805;DHT22;10062;51.052;13.756;2022-09-30T10:18:30;39.40;1.00
19805;DHT22;10062;51.052;13.756;2022-09-30T10:21:06;38.80;1.00
19805;DHT22;10062;51.052;13.756;2022-09-30T10:23:49;39.90;1.00
19805;DHT22;10062;51.052;13.756;2022-09-30T10:26:23;40.60;1.00
19805;DHT22;10062;51.052;13.756;2022-09-30T10:28:57;40.50;1.00
19805;DHT22;10062;51.052;13.756;2022-09-30T10:31:33;40.90;1.00
19805;DHT22;10062;51.052;13.756;2022-09-30T10:34:11;42.80;1.00
19805;DHT22;10062;51.052;13.756;2022-09-30T10:36:49;42.70;1.00
19805;DHT22;10062;51.052;13.756;2022-09-30T10:39:23;41.00;1.00
19805;DHT22;10062;51.052;13.756;2022-09-30T10:42:01;41.60;1.00
19805;DHT22;10062;51.052;13.756;2022-09-30T10:44:37;43.10;1.00
19805;DHT22;10062;51.052;13.756;2022-09-30T10:47:14;41.20;1.00
19805;DHT22;10062;51.052;13.756;2022-09-30T10:49:48;41.10;1.00
19805;DHT22;10062;51.052;13.756;2022-09-30T10:52:26;41.60;1.00
19805;DHT22;10062;51.052;13.756;2022-09-30T10:54:59;38.60;1.00
19805;DHT22;10062;51.052;13.756;2022-09-30T10:57:33;38.30;1.00
19805;DHT22;10062;51.052;13.756;2022-09-30T11:00:10;38.10;1.00
19805;DHT22;10062;51.052;13.756;2022-09-30T11:02:50;37.90;1.00
19805;DHT22;10062;51.052;13.756;2022-09-30T11:05:28;37.70;1.00
19805;DHT22;10062;51.052;13.756;2022-09-30T11:08:05;36.20;1.00
19805;DHT22;10062;51.052;13.756;2022-09-30T11:10:49;35.30;1.00
19805;DHT22;10062;51.052;13.756;2022-09-30T11:13:27;36.00;1.00
19805;DHT22;10062;51.052;13.756;2022-09-30T11:16:04;33.40;1.00
19805;DHT22;10062;51.052;13.756;2022-09-30T11:18:42;32.60;1.00
19805;DHT22;10062;51.052;13.756;2022-09-30T11:21:20;30.50;1.00
19805;DHT22;10062;51.052;13.756;2022-09-30T11:23:56;30.90;1.00
19805;DHT22;10062;51.052;13.756;2022-09-30T11:26:36;31.90;1.00
19805;DHT22;10062;51.052;13.756;2022-09-30T11:29:35;29.10;1.00
19805;DHT22;10062;51.052;13.756;2022-09-30T11:32:19;29.70;1.00
19805;DHT22;10062;51.052;13.756;2022-09-30T11:34:59;28.10;1.00
19805;DHT22;10062;51.052;13.756;2022-09-30T11:37:45;27.30;1.00
19805;DHT22;10062;51.052;13.756;2022-09-30T11:40:29;27.00;1.00
19805;DHT22;10062;51.052;13.756;2022-09-30T11:43:10;26.80;1.00
19805;DHT22;10062;51.052;13.756;2022-09-30T11:46:04;26.50;1.00
19805;DHT22;10062;51.052;13.756;2022-09-30T11:48:52;26.40;1.00
19805;DHT22;10062;51.052;13.756;2022-09-30T11:51:33;26.50;1.00
19805;DHT22;10062;51.052;13.756;2022-09-30T11:54:20;26.40;1.00
19805;DHT22;10062;51.052;13.756;2022-09-30T11:57:03;27.10;1.00
19805;DHT22;10062;51.052;13.756;2022-09-30T11:59:42;28.40;1.00
19805;DHT22;10062;51.052;13.756;2022-09-30T12:02:25;28.60;1.00
19805;DHT22;10062;51.052;13.756;2022-09-30T12:05:04;25.90;1.00
19805;DHT22;10062;51.052;13.756;2022-09-30T12:07:41;25.70;1.00
19805;DHT22;10062;51.052;13.756;2022-09-30T12:10:18;25.80;1.00
19805;DHT22;10062;51.052;13.756;2022-09-30T12:12:55;25.70;1.00
19805;DHT22;10062;51.052;13.756;2022-09-30T12:15:30;25.60;1.00
19805;DHT22;10062;51.052;13.756;2022-09-30T12:18:04;24.70;1.00
19805;DHT22;10062;51.052;13.756;2022-09-30T12:20:41;24.70;1.00
19805;DHT22;10062;51.052;13.756;2022-09-30T12:23:19;24.90;1.00
19805;DHT22;10062;51.052;13.756;2022-09-30T12:25:54;25.20;1.00
19805;DHT22;10062;51.052;13.756;2022-09-30T12:28:30;25.40;1.00
19805;DHT22;10062;51.052;13.756;2022-09-30T12:31:38;25.40;1.00
19805;DHT22;10062;51.052;13.756;2022-09-30T12:34:23;25.20;1.00
19805;DHT22;10062;51.052;13.756;2022-09-30T12:37:08;24.80;1.00
19805;DHT22;10062;51.052;13.756;2022-09-30T12:40:06;24.80;1.00
19805;DHT22;10062;51.052;13.756;2022-09-30T12:42:59;24.80;1.00
19805;DHT22;10062;51.052;13.756;2022-09-30T12:45:58;24.60;1.00
19805;DHT22;10062;51.052;13.756;2022-09-30T12:48:35;24.60;1.00
19805;DHT22;10062;51.052;13.756;2022-09-30T12:51:13;24.40;1.00
19805;DHT22;10062;51.052;13.756;2022-09-30T12:53:57;23.70;1.00
19805;DHT22;10062;51.052;13.756;2022-09-30T12:56:31;23.10;1.00
19805;DHT22;10062;51.052;13.756;2022-09-30T12:59:03;23.20;1.00
19805;DHT22;10062;51.052;13.756;2022-09-30T13:01:37;23.20;1.00
19805;DHT22;10062;51.052;13.756;2022-09-30T13:04:16;23.40;1.00
19805;DHT22;10062;51.052;13.756;2022-09-30T13:07:14;23.60;1.00
19805;DHT22;10062;51.052;13.756;2022-09-30T13:10:24;23.80;1.00
19805;DHT22;10062;51.052;13.756;2022-09-30T13:13:19;24.00;1.00
19805;DHT22;10062;51.052;13.756;2022-09-30T13:15:53;23.80;1.00
19805;DHT22;10062;51.052;13.756;2022-09-30T13:18:59;23.50;1.00
19805;DHT22;10062;51.052;13.756;2022-09-30T13:21:34;23.80;1.00
19805;DHT22;10062;51.052;13.756;2022-09-30T13:24:07;24.00;1.00
19805;DHT22;10062;51.052;13.756;2022-09-30T13:27:06;24.00;1.00
19805;DHT22;10062;51.052;13.756;2022-09-30T13:29:45;23.90;1.00
19805;DHT22;10062;51.052;13.756;2022-09-30T13:32:32;23.80;1.00
19805;DHT22;10062;51.052;13.756;2022-09-30T13:35:31;23.80;1.00
19805;DHT22;10062;51.052;13.756;2022-09-30T13:38:16;23.30;1.00
19805;DHT22;10062;51.052;13.756;2022-09-30T13:40:51;23.20;1.00
19805;DHT22;10062;51.052;13.756;2022-09-30T13:43:27;22.90;1.00
19805;DHT22;10062;51.052;13.756;2022-09-30T13:46:09;22.70;1.00
19805;DHT22;10062;51.052;13.756;2022-09-30T13:48:48;22.60;1.00
19805;DHT22;10062;51.052;13.756;2022-09-30T13:51:26;22.80;1.00
19805;DHT22;10062;51.052;13.756;2022-09-30T13:54:01;22.90;1.00
19805;DHT22;10062;51.052;13.756;2022-09-30T13:56:38;22.90;1.00
19805;DHT22;10062;51.052;13.756;2022-09-30T13:59:21;23.00;1.00
19805;DHT22;10062;51.052;13.756;2022-09-30T14:02:28;22.60;1.00
19805;DHT22;10062;51.052;13.756;2022-09-30T14:05:19;22.50;1.00
19805;DHT22;10062;51.052;13.756;2022-09-30T14:08:17;22.50;1.00
19805;DHT22;10062;51.052;13.756;2022-09-30T14:11:01;22.30;1.00
19805;DHT22;10062;51.052;13.756;2022-09-30T14:13:45;22.30;1.00
19805;DHT22;10062;51.052;13.756;2022-09-30T14:16:51;22.10;1.00
19805;DHT22;10062;51.052;13.756;2022-09-30T14:19:42;22.10;1.00
19805;DHT22;10062;51.052;13.756;2022-09-30T14:22:19;22.00;1.00
19805;DHT22;10062;51.052;13.756;2022-09-30T14:24:56;21.90;1.00
19805;DHT22;10062;51.052;13.756;2022-09-30T14:27:39;21.90;1.00
19805;DHT22;10062;51.052;13.756;2022-09-30T14:30:14;21.90;1.00
19805;DHT22;10062;51.052;13.756;2022-09-30T14:32:51;21.70;1.00
19805;DHT22;10062;51.052;13.756;2022-09-30T14:35:28;21.60;1.00
19805;DHT22;10062;51.052;13.756;2022-09-30T14:38:02;21.50;1.00
19805;DHT22;10062;51.052;13.756;2022-09-30T14:40:38;21.10;1.00
19805;DHT22;10062;51.052;13.756;2022-09-30T14:43:15;21.10;1.00
19805;DHT22;10062;51.052;13.756;2022-09-30T14:45:52;21.00;1.00
19805;DHT22;10062;51.052;13.756;2022-09-30T14:48:27;21.00;1.00
19805;DHT22;10062;51.052;13.756;2022-09-30T14:51:02;21.00;1.00
19805;DHT22;10062;51.052;13.756;2022-09-30T14:53:38;21.00;1.00
19805;DHT22;10062;51.052;13.756;2022-09-30T14:56:18;20.50;1.00
19805;DHT22;10062;51.052;13.756;2022-09-30T14:58:52;20.20;1.00
19805;DHT22;10062;51.052;13.756;2022-09-30T15:01:29;20.10;1.00
19805;DHT22;10062;51.052;13.756;2022-09-30T15:04:06;20.10;1.00
19805;DHT22;10062;51.052;13.756;2022-09-30T15:06:43;21.40;1.00
19805;DHT22;10062;51.052;13.756;2022-09-30T15:09:22;20.30;1.00
19805;DHT22;10062;51.052;13.756;2022-09-30T15:11:55;20.30;1.00
19805;DHT22;10062;51.052;13.756;2022-09-30T15:14:29;20.20;1.00
19805;DHT22;10062;51.052;13.756;2022-09-30T15:17:02;20.20;1.00
19805;DHT22;10062;51.052;13.756;2022-09-30T15:19:41;20.10;1.00
19805;DHT22;10062;51.052;13.756;2022-09-30T15:22:14;20.00;1.00
19805;DHT22;10062;51.052;13.756;2022-09-30T15:24:47;20.10;1.00
19805;DHT22;10062;51.052;13.756;2022-09-30T15:27:23;20.00;1.00
19805;DHT22;10062;51.052;13.756;2022-09-30T15:29:57;20.00;1.00
19805;DHT22;10062;51.052;13.756;2022-09-30T15:32:32;19.90;1.00
19805;DHT22;10062;51.052;13.756;2022-09-30T15:35:07;19.90;1.00
19805;DHT22;10062;51.052;13.756;2022-09-30T15:37:43;19.80;1.00
19805;DHT22;10062;51.052;13.756;2022-09-30T15:40:17;19.80;1.00
19805;DHT22;10062;51.052;13.756;2022-09-30T15:43:09;19.80;1.00
19805;DHT22;10062;51.052;13.756;2022-09-30T15:45:46;19.70;1.00
19805;DHT22;10062;51.052;13.756;2022-09-30T15:48:33;19.70;1.00
19805;DHT22;10062;51.052;13.756;2022-09-30T15:51:30;19.70;1.00
19805;DHT22;10062;51.052;13.756;2022-09-30T15:54:27;19.50;1.00
19805;DHT22;10062;51.052;13.756;2022-09-30T15:57:14;19.20;1.00
19805;DHT22;10062;51.052;13.756;2022-09-30T15:59:58;19.20;1.00
19805;DHT22;10062;51.052;13.756;2022-09-30T16:02:31;19.20;1.00
19805;DHT22;10062;51.052;13.756;2022-09-30T16:05:04;19.10;1.00
19805;DHT22;10062;51.052;13.756;2022-09-30T16:07:36;18.80;1.00
19805;DHT22;10062;51.052;13.756;2022-09-30T16:10:17;18.90;1.00
19805;DHT22;10062;51.052;13.756;2022-09-30T16:12:50;19.00;1.00
19805;DHT22;10062;51.052;13.756;2022-09-30T16:15:24;18.80;1.00
19805;DHT22;10062;51.052;13.756;2022-09-30T16:17:56;18.90;1.00
19805;DHT22;10062;51.052;13.756;2022-09-30T16:20:28;18.70;1.00
19805;DHT22;10062;51.052;13.756;2022-09-30T16:23:00;18.60;1.00
19805;DHT22;10062;51.052;13.756;2022-09-30T16:25:32;18.70;1.00
19805;DHT22;10062;51.052;13.756;2022-09-30T16:28:09;18.40;1.00
19805;DHT22;10062;51.052;13.756;2022-09-30T16:30:45;18.00;1.00
19805;DHT22;10062;51.052;13.756;2022-09-30T16:33:18;21.10;1.00
19805;DHT22;10062;51.052;13.756;2022-09-30T16:35:52;17.70;1.00
19805;DHT22;10062;51.052;13.756;2022-09-30T16:38:27;17.60;1.00
19805;DHT22;10062;51.052;13.756;2022-09-30T16:41:00;19.30;1.00
19805;DHT22;10062;51.052;13.756;2022-09-30T16:43:33;17.50;1.00
19805;DHT22;10062;51.052;13.756;2022-09-30T16:46:07;17.50;1.00
19805;DHT22;10062;51.052;13.756;2022-09-30T16:48:40;17.30;99.90